createdAt,value
2023-05-15T00:01:42.920Z,92.44
2023-05-15T00:04:45.937Z,92.33
2023-05-15T00:07:49.915Z,92.50
2023-05-15T00:11:00.934Z,92.83
2023-05-15T00:14:05.570Z,92.61
2023-05-15T00:17:14.572Z,92.30
2023-05-15T00:20:17.196Z,92.88
2023-05-15T00:23:23.371Z,93.15
2023-05-15T00:26:26.186Z,93.55
2023-05-15T00:29:29.067Z,93.86
2023-05-15T00:32:31.785Z,93.93
2023-05-15T00:35:37.508Z,93.70
2023-05-15T00:38:41.882Z,94.24
2023-05-15T00:41:46.143Z,94.54
2023-05-15T00:44:49.914Z,94.66
2023-05-15T00:47:54.160Z,94.62
2023-05-15T00:50:58.348Z,94.82
2023-05-15T00:54:03.400Z,94.93
2023-05-15T00:57:09.631Z,95.12
2023-05-15T01:00:16.761Z,94.77
2023-05-15T01:03:19.977Z,95.75
2023-05-15T01:06:22.988Z,96.01
2023-05-15T01:09:31.508Z,95.34
2023-05-15T01:12:36.971Z,95.43
2023-05-15T01:15:39.693Z,95.07
2023-05-15T01:18:44.791Z,95.35
2023-05-15T01:22:16.640Z,95.02
2023-05-15T01:25:57.524Z,95.00
2023-05-15T01:29:06.511Z,94.84
2023-05-15T01:32:12.999Z,95.08
2023-05-15T01:35:22.403Z,94.99
2023-05-15T01:38:31.662Z,94.90
2023-05-15T01:41:42.580Z,94.96
2023-05-15T01:44:54.617Z,94.65
2023-05-15T01:47:58.884Z,95.01
2023-05-15T01:51:04.495Z,95.02
2023-05-15T01:54:09.252Z,94.45
2023-05-15T01:57:13.019Z,94.45
2023-05-15T02:00:18.786Z,94.48
2023-05-15T02:03:21.845Z,94.53
2023-05-15T02:06:26.174Z,94.86
2023-05-15T02:09:29.782Z,94.41
2023-05-15T02:12:33.876Z,94.96
2023-05-15T02:15:38.888Z,95.14
2023-05-15T02:18:44.863Z,95.04
2023-05-15T02:21:47.588Z,95.52
2023-05-15T02:24:50.265Z,95.22
2023-05-15T02:27:58.576Z,95.24
2023-05-15T02:31:09.252Z,95.94
2023-05-15T02:34:22.757Z,96.01
2023-05-15T02:37:29.751Z,96.43
2023-05-15T02:40:34.313Z,96.29
2023-05-15T02:43:37.594Z,96.47
2023-05-15T02:46:42.701Z,96.47
2023-05-15T02:49:46.268Z,96.58
2023-05-15T02:52:48.996Z,96.60
2023-05-15T02:55:52.045Z,96.37
2023-05-15T02:58:55.111Z,96.69
2023-05-15T03:02:00.039Z,96.66
2023-05-15T03:05:08.648Z,96.73
2023-05-15T03:08:11.356Z,96.52
2023-05-15T03:11:14.383Z,96.71
2023-05-15T03:14:19.703Z,97.08
2023-05-15T03:17:23.732Z,97.36
2023-05-15T03:20:26.432Z,97.10
2023-05-15T03:23:29.121Z,97.01
2023-05-15T03:26:31.787Z,97.42
2023-05-15T03:29:40.647Z,97.11
2023-05-15T03:32:44.823Z,97.03
2023-05-15T03:35:51.216Z,96.79
2023-05-15T03:38:53.903Z,96.38
2023-05-15T03:41:56.585Z,96.51
2023-05-15T03:44:59.329Z,96.37
2023-05-15T03:48:03.717Z,95.66
2023-05-15T03:51:06.559Z,95.54
2023-05-15T03:54:09.888Z,95.58
2023-05-15T03:57:13.541Z,95.33
2023-05-15T04:00:18.470Z,94.86
2023-05-15T04:03:24.306Z,94.82
2023-05-15T04:06:27.234Z,94.55
2023-05-15T04:09:29.991Z,94.75
2023-05-15T04:12:35.819Z,94.40
2023-05-15T04:15:38.548Z,94.69
2023-05-15T04:18:42.719Z,94.16
2023-05-15T04:21:45.652Z,94.50
2023-05-15T04:24:48.344Z,94.90
2023-05-15T04:27:51.094Z,94.44
2023-05-15T04:30:53.743Z,94.24
2023-05-15T04:33:57.748Z,93.95
2023-05-15T04:37:02.088Z,93.71
2023-05-15T04:40:06.513Z,93.54
2023-05-15T04:43:09.335Z,93.06
2023-05-15T04:46:12.105Z,93.02
2023-05-15T04:49:16.609Z,93.01
2023-05-15T04:52:19.451Z,93.02
2023-05-15T04:55:22.348Z,92.59
2023-05-15T04:58:25.471Z,92.06
2023-05-15T05:01:28.196Z,92.40
2023-05-15T05:04:32.253Z,92.23
2023-05-15T05:07:35.636Z,91.86
2023-05-15T05:10:38.340Z,92.28
2023-05-15T05:13:41.990Z,91.93
2023-05-15T05:16:45.683Z,91.82
2023-05-15T05:19:49.736Z,91.30
2023-05-15T05:22:52.500Z,90.71
2023-05-15T05:25:55.204Z,90.28
2023-05-15T05:28:57.946Z,89.79
2023-05-15T05:32:01.411Z,89.79
2023-05-15T05:35:06.446Z,89.34
2023-05-15T05:38:09.212Z,89.00
2023-05-15T05:41:11.918Z,88.60
2023-05-15T05:44:14.621Z,88.36
2023-05-15T05:47:17.486Z,88.41
2023-05-15T05:50:21.695Z,88.23
2023-05-15T05:53:24.381Z,88.20
2023-05-15T05:56:27.303Z,88.23
2023-05-15T05:59:30.091Z,87.88
2023-05-15T06:02:32.846Z,86.72
2023-05-15T06:05:37.191Z,85.37
2023-05-15T06:08:40.052Z,83.91
2023-05-15T06:11:42.772Z,81.79
2023-05-15T06:14:45.477Z,80.91
2023-05-15T06:17:51.140Z,80.01
2023-05-15T06:20:55.228Z,79.60
2023-05-15T06:23:57.887Z,77.74
2023-05-15T06:27:01.090Z,74.20
2023-05-15T06:30:10.707Z,72.19
2023-05-15T06:33:13.485Z,71.17
2023-05-15T06:36:17.580Z,71.49
2023-05-15T06:39:20.235Z,71.84
2023-05-15T06:42:23.132Z,71.84
2023-05-15T06:45:27.407Z,70.91
2023-05-15T06:48:30.526Z,71.91
2023-05-15T06:51:34.577Z,72.67
2023-05-15T06:54:37.575Z,73.69
2023-05-15T06:57:40.449Z,74.49
2023-05-15T07:00:43.232Z,75.00
2023-05-15T07:03:45.897Z,74.78
2023-05-15T07:06:50.362Z,73.60
2023-05-15T07:09:53.055Z,71.54
2023-05-15T07:12:55.787Z,70.22
2023-05-15T07:15:58.511Z,69.19
2023-05-15T07:19:01.727Z,69.15
2023-05-15T07:22:06.225Z,68.48
2023-05-15T07:25:11.852Z,66.50
2023-05-15T07:28:14.619Z,66.28
2023-05-15T07:31:17.351Z,66.31
2023-05-15T07:34:20.200Z,65.15
2023-05-15T07:37:24.852Z,63.65
2023-05-15T07:40:27.704Z,62.30
2023-05-15T07:43:30.432Z,61.54
2023-05-15T07:46:33.265Z,61.23
2023-05-15T07:49:38.133Z,62.10
2023-05-15T07:52:45.252Z,62.99
2023-05-15T07:55:47.928Z,63.59
2023-05-15T07:58:50.702Z,63.99
2023-05-15T08:01:53.976Z,64.88
2023-05-15T08:04:56.662Z,65.49
2023-05-15T08:08:02.244Z,65.73
2023-05-15T08:11:09.900Z,66.39
2023-05-15T08:14:13.960Z,66.50
2023-05-15T08:17:17.041Z,66.47
2023-05-15T08:20:20.917Z,66.21
2023-05-15T08:23:25.122Z,66.23
2023-05-15T08:26:27.816Z,65.70
2023-05-15T08:29:30.523Z,65.96
2023-05-15T08:32:35.179Z,66.09
2023-05-15T08:35:41.223Z,65.69
2023-05-15T08:38:45.323Z,66.57
2023-05-15T08:41:54.398Z,66.51
2023-05-15T08:44:57.459Z,67.15
2023-05-15T08:48:03.282Z,67.39
2023-05-15T08:51:10.198Z,67.99
2023-05-15T08:54:14.412Z,68.26
2023-05-15T08:57:18.636Z,68.17
2023-05-15T09:00:22.996Z,68.38
2023-05-15T09:03:25.988Z,68.37
2023-05-15T09:06:29.256Z,67.15
2023-05-15T09:09:35.312Z,66.71
2023-05-15T09:12:43.046Z,66.11
2023-05-15T09:15:46.717Z,66.18
2023-05-15T09:18:50.911Z,65.43
2023-05-15T09:21:53.699Z,64.52
2023-05-15T09:24:58.204Z,63.32
2023-05-15T09:28:01.046Z,62.45
2023-05-15T09:31:05.665Z,57.17
2023-05-15T09:34:10.212Z,56.55
2023-05-15T09:37:29.423Z,55.46
2023-05-15T09:40:33.556Z,56.92
2023-05-15T09:43:38.825Z,54.48
2023-05-15T09:46:41.651Z,54.25
2023-05-15T09:49:45.684Z,52.07
2023-05-15T09:52:48.542Z,54.15
2023-05-15T09:55:54.056Z,55.07
2023-05-15T09:58:58.240Z,54.55
2023-05-15T10:02:00.985Z,51.94
2023-05-15T10:05:04.506Z,50.82
2023-05-15T10:08:10.225Z,52.32
2023-05-15T10:11:14.486Z,51.17
2023-05-15T10:14:19.547Z,51.52
2023-05-15T10:17:22.338Z,51.67
2023-05-15T10:20:26.978Z,51.54
2023-05-15T10:23:32.242Z,50.32
2023-05-15T10:26:41.465Z,48.97
2023-05-15T10:29:45.154Z,49.00
2023-05-15T10:32:49.970Z,49.83
2023-05-15T10:35:53.150Z,50.00
2023-05-15T10:38:55.968Z,47.15
2023-05-15T10:42:01.187Z,47.53
2023-05-15T10:45:09.900Z,46.64
2023-05-15T10:48:13.529Z,46.00
2023-05-15T10:51:17.436Z,46.50
2023-05-15T10:54:20.399Z,46.23
2023-05-15T10:57:24.703Z,45.89
2023-05-15T11:00:29.270Z,45.41
2023-05-15T11:03:48.890Z,45.35
2023-05-15T11:07:13.050Z,42.85
2023-05-15T11:10:37.657Z,43.09
2023-05-15T11:14:14.403Z,43.52
2023-05-15T11:17:17.695Z,44.28
2023-05-15T11:20:20.503Z,43.33
2023-05-15T11:23:24.715Z,40.58
2023-05-15T11:26:34.059Z,40.98
2023-05-15T11:29:38.111Z,41.58
2023-05-15T11:32:56.371Z,39.28
2023-05-15T11:36:01.165Z,39.36
2023-05-15T11:39:11.241Z,40.88
2023-05-15T11:42:14.892Z,41.70
2023-05-15T11:45:19.156Z,42.74
2023-05-15T11:48:24.822Z,42.38
2023-05-15T11:51:30.147Z,41.19
2023-05-15T11:54:33.466Z,41.99
2023-05-15T11:57:39.218Z,39.49
2023-05-15T12:00:44.508Z,39.33
2023-05-15T12:03:49.113Z,40.04
2023-05-15T12:06:52.565Z,41.04
2023-05-15T12:09:55.757Z,40.19
2023-05-15T12:12:59.778Z,40.62
2023-05-15T12:16:05.213Z,40.69
2023-05-15T12:19:08.266Z,40.62
2023-05-15T12:22:11.207Z,39.82
2023-05-15T12:25:17.759Z,39.69
2023-05-15T12:28:20.681Z,39.45
2023-05-15T12:31:24.988Z,40.23
2023-05-15T12:34:27.929Z,40.58
2023-05-15T12:37:33.621Z,41.45
2023-05-15T12:40:37.812Z,42.43
2023-05-15T12:43:41.244Z,42.28
2023-05-15T12:46:46.257Z,43.17
2023-05-15T12:49:48.994Z,43.19
2023-05-15T12:52:53.220Z,41.97
2023-05-15T12:55:55.993Z,41.52
2023-05-15T12:58:59.222Z,41.75
2023-05-15T13:02:03.425Z,42.00
2023-05-15T13:05:07.210Z,41.66
2023-05-15T13:08:10.109Z,41.15
2023-05-15T13:11:14.617Z,40.45
2023-05-15T13:14:19.532Z,39.85
2023-05-15T13:17:23.615Z,38.81
2023-05-15T13:20:26.676Z,39.24
2023-05-15T13:23:29.668Z,38.73
2023-05-15T13:26:32.492Z,39.45
2023-05-15T13:29:35.676Z,38.60
2023-05-15T13:32:39.849Z,37.66
2023-05-15T13:35:43.257Z,36.36
2023-05-15T13:39:06.584Z,37.46
2023-05-15T13:42:09.369Z,37.99
2023-05-15T13:45:14.544Z,39.00
2023-05-15T13:48:19.736Z,40.33
2023-05-15T13:51:22.497Z,41.20
2023-05-15T13:54:25.359Z,42.08
2023-05-15T13:57:28.042Z,42.31
2023-05-15T14:00:30.785Z,41.83
2023-05-15T14:03:35.138Z,42.32
2023-05-15T14:06:38.188Z,41.93
2023-05-15T14:09:41.151Z,42.11
2023-05-15T14:12:44.224Z,42.52
2023-05-15T14:15:47.126Z,42.52
2023-05-15T14:18:51.138Z,42.74
2023-05-15T14:21:54.005Z,42.14
2023-05-15T14:24:56.845Z,42.00
2023-05-15T14:27:59.783Z,41.56
2023-05-15T14:31:02.546Z,40.10
2023-05-15T14:34:07.037Z,41.67
2023-05-15T14:37:09.989Z,42.49
2023-05-15T14:40:13.618Z,42.71
2023-05-15T14:43:16.625Z,42.91
2023-05-15T14:46:20.368Z,43.44
2023-05-15T14:49:25.394Z,43.48
2023-05-15T14:52:29.146Z,43.76
2023-05-15T14:55:34.176Z,43.48
2023-05-15T14:58:37.588Z,43.97
2023-05-15T15:01:40.720Z,43.38
2023-05-15T15:04:45.075Z,42.77
2023-05-15T15:08:02.657Z,42.45
2023-05-15T15:11:06.552Z,41.66
2023-05-15T15:14:09.678Z,40.18
2023-05-15T15:17:12.883Z,39.88
2023-05-15T15:20:27.002Z,39.85
2023-05-15T15:23:32.472Z,39.98
2023-05-15T15:26:35.538Z,39.80
2023-05-15T15:29:38.453Z,39.73
2023-05-15T15:32:42.381Z,39.38
2023-05-15T15:35:48.255Z,39.48
2023-05-15T15:38:51.303Z,39.24
2023-05-15T15:41:54.556Z,39.63
2023-05-15T15:44:59.443Z,39.93
2023-05-15T15:48:02.380Z,39.86
2023-05-15T15:51:07.195Z,40.13
2023-05-15T15:54:10.540Z,40.54
2023-05-15T16:01:06.400Z,41.52
2023-05-15T16:04:45.195Z,42.10
2023-05-15T16:08:17.759Z,42.24
2023-05-15T16:11:44.190Z,42.67
2023-05-15T16:15:21.050Z,43.62
2023-05-15T16:18:55.377Z,44.57
2023-05-15T16:22:03.602Z,44.89
2023-05-15T16:25:45.391Z,45.54
2023-05-15T16:28:56.956Z,45.89
2023-05-15T16:32:12.943Z,46.28
2023-05-15T16:35:41.808Z,46.97
2023-05-15T16:39:31.483Z,47.22
2023-05-15T16:42:52.719Z,47.42
2023-05-15T16:45:55.589Z,47.88
2023-05-15T16:48:58.282Z,47.86
2023-05-15T16:52:01.332Z,47.90
2023-05-15T16:55:04.452Z,48.25
2023-05-15T16:58:08.629Z,48.27
2023-05-15T17:01:11.448Z,47.87
2023-05-15T17:04:14.162Z,48.01
2023-05-15T17:07:16.835Z,48.35
2023-05-15T17:10:19.703Z,47.95
2023-05-15T17:13:25.110Z,47.92
2023-05-15T17:16:29.364Z,48.27
2023-05-15T17:19:34.295Z,48.14
2023-05-15T17:22:37.183Z,48.23
2023-05-15T17:25:39.840Z,48.12
2023-05-15T17:28:43.837Z,47.30
2023-05-15T17:31:47.280Z,46.74
2023-05-15T17:34:51.481Z,46.56
2023-05-15T17:37:54.217Z,46.94
2023-05-15T17:40:56.922Z,47.75
2023-05-15T17:44:01.028Z,48.26
2023-05-15T17:47:03.772Z,48.59
2023-05-15T17:50:07.709Z,48.34
2023-05-15T17:53:10.454Z,49.00
2023-05-15T17:56:13.334Z,47.75
2023-05-15T17:59:17.549Z,47.82
2023-05-15T18:02:20.271Z,47.23
2023-05-15T18:05:23.842Z,47.69
2023-05-15T18:08:27.307Z,48.91
2023-05-15T18:11:30.090Z,49.73
2023-05-15T18:14:34.284Z,50.00
2023-05-15T18:17:37.098Z,50.33
2023-05-15T18:20:39.865Z,50.39
2023-05-15T18:23:42.781Z,50.75
2023-05-15T18:26:45.557Z,50.86
2023-05-15T18:29:49.767Z,51.13
2023-05-15T18:32:52.594Z,52.30
2023-05-15T18:35:55.668Z,53.14
2023-05-15T18:38:58.410Z,53.71
2023-05-15T18:42:01.262Z,53.68
2023-05-15T18:45:06.155Z,53.96
2023-05-15T18:48:09.166Z,53.72
2023-05-15T18:51:12.076Z,53.68
2023-05-15T18:54:14.884Z,53.89
2023-05-15T18:57:17.739Z,53.89
2023-05-15T19:00:34.033Z,54.22
2023-05-15T19:03:41.050Z,54.30
2023-05-15T19:06:44.275Z,54.03
2023-05-15T19:09:47.001Z,54.20
2023-05-15T19:12:49.721Z,54.48
2023-05-15T19:15:56.769Z,54.31
2023-05-15T19:19:00.268Z,54.53
2023-05-15T19:22:03.480Z,54.92
2023-05-15T19:25:07.198Z,55.16
2023-05-15T19:28:12.213Z,55.69
2023-05-15T19:31:27.892Z,56.96
2023-05-15T19:34:33.888Z,58.42
2023-05-15T19:37:36.639Z,59.75
2023-05-15T19:40:46.827Z,60.15
2023-05-15T19:43:50.928Z,61.48
2023-05-15T19:46:55.269Z,61.96
2023-05-15T19:49:58.004Z,62.14
2023-05-15T19:53:01.004Z,61.82
2023-05-15T19:56:03.983Z,63.08
2023-05-15T19:59:06.765Z,62.99
2023-05-15T20:02:11.252Z,63.40
2023-05-15T20:05:14.837Z,64.09
2023-05-15T20:08:17.676Z,64.53
2023-05-15T20:11:21.154Z,64.58
2023-05-15T20:14:24.040Z,64.48
2023-05-15T20:17:28.934Z,64.12
2023-05-15T20:20:31.876Z,63.68
2023-05-15T20:23:34.716Z,64.00
2023-05-15T20:26:37.580Z,64.38
2023-05-15T20:29:43.564Z,64.26
2023-05-15T20:32:47.678Z,64.72
2023-05-15T20:35:51.464Z,65.00
2023-05-15T20:38:55.076Z,65.11
2023-05-15T20:41:57.791Z,65.65
2023-05-15T20:45:00.473Z,66.22
2023-05-15T20:48:06.911Z,66.45
2023-05-15T20:51:09.576Z,66.67
2023-05-15T20:54:12.269Z,66.88
2023-05-15T20:57:15.097Z,67.39
2023-05-15T21:00:18.938Z,68.11
2023-05-15T21:03:23.027Z,68.93
2023-05-15T21:06:25.977Z,69.96
2023-05-15T21:09:28.932Z,70.67
2023-05-15T21:12:32.473Z,71.02
2023-05-15T21:15:35.147Z,71.45
2023-05-15T21:18:39.507Z,71.26
2023-05-15T21:21:42.158Z,71.41
2023-05-15T21:24:45.111Z,72.16
2023-05-15T21:27:47.811Z,72.83
2023-05-15T21:30:50.557Z,73.16
2023-05-15T21:33:55.903Z,73.38
2023-05-15T21:36:58.649Z,73.06
2023-05-15T21:40:01.786Z,73.56
2023-05-15T21:43:04.939Z,73.53
2023-05-15T21:46:07.862Z,73.28
2023-05-15T21:49:12.352Z,73.31
2023-05-15T21:52:15.436Z,73.07
2023-05-15T21:55:18.500Z,73.00
2023-05-15T21:58:23.760Z,72.99
2023-05-15T22:01:26.502Z,73.19
2023-05-15T22:04:30.701Z,73.44
2023-05-15T22:07:33.613Z,73.43
2023-05-15T22:10:36.489Z,73.49
2023-05-15T22:13:39.152Z,73.58
2023-05-15T22:16:42.821Z,73.38
2023-05-15T22:19:47.263Z,73.36
2023-05-15T22:22:50.060Z,73.96
2023-05-15T22:25:57.977Z,73.98
2023-05-15T22:29:00.696Z,74.26
2023-05-15T22:32:03.814Z,74.15
2023-05-15T22:35:09.671Z,74.33
2023-05-15T22:38:12.438Z,74.46
2023-05-15T22:41:18.312Z,74.48
2023-05-15T22:44:21.041Z,74.92
2023-05-15T22:47:23.828Z,75.45
2023-05-15T22:50:31.616Z,75.71
2023-05-15T22:53:34.644Z,76.02
2023-05-15T22:56:40.425Z,76.13
2023-05-15T22:59:45.491Z,76.47
2023-05-15T23:02:48.231Z,76.82
2023-05-15T23:05:53.127Z,77.22
2023-05-15T23:08:55.971Z,77.46
2023-05-15T23:11:58.648Z,77.33
2023-05-15T23:15:02.080Z,77.45
2023-05-15T23:18:05.521Z,77.44
2023-05-15T23:21:12.778Z,77.44
2023-05-15T23:24:16.143Z,77.47
2023-05-15T23:27:18.858Z,77.68
2023-05-15T23:30:21.925Z,77.57
2023-05-15T23:33:24.592Z,77.82
2023-05-15T23:36:28.624Z,77.87
2023-05-15T23:39:31.829Z,78.13
2023-05-15T23:42:34.636Z,78.11
2023-05-15T23:45:37.743Z,77.96
2023-05-15T23:48:40.578Z,78.66
2023-05-15T23:51:44.631Z,78.79
2023-05-15T23:54:47.507Z,78.71
2023-05-15T23:57:50.412Z,79.00
